Time;durP1;ratioP1;P1;durP2;ratioP2;P2;SDS_P1;SDS_P2;PMS_P1;PMS_P2;Temp;Humidity;BMP_temperature;BMP_pressure;BME280_temperature;BME280_humidity;BME280_pressure;Samples;Min_cycle;Max_cycle;Signal;HPM_P1;HPM_P2
2022/10/26 00:01:01;;;;;;;11.57;2.95;;;15.30;99.90;;;;;;5074194;28;20070;-66
2022/10/26 00:03:28;;;;;;;12.80;5.00;;;15.40;99.90;;;;;;5075310;28;20044;-66
2022/10/26 00:05:57;;;;;;;13.20;3.33;;;15.40;99.90;;;;;;5075123;28;20378;-66
2022/10/26 00:08:24;;;;;;;9.80;3.50;;;15.40;99.90;;;;;;5058062;28;20395;-66
2022/10/26 00:10:51;;;;;;;13.35;3.65;;;15.50;99.90;;;;;;5076030;28;20129;-66
2022/10/26 00:13:18;;;;;;;11.85;3.58;;;15.50;99.90;;;;;;5075371;28;20494;-66
2022/10/26 00:15:45;;;;;;;14.50;3.08;;;15.50;99.90;;;;;;5075533;28;20063;-66
2022/10/26 00:18:11;;;;;;;11.27;3.28;;;15.50;99.90;;;;;;5074593;28;20052;-66
2022/10/26 00:20:38;;;;;;;9.90;3.25;;;15.50;99.90;;;;;;5074491;28;20052;-66
2022/10/26 00:23:05;;;;;;;8.75;3.42;;;15.50;99.90;;;;;;5074080;28;20036;-66
2022/10/26 00:25:32;;;;;;;12.23;4.13;;;15.60;99.90;;;;;;5074748;28;20044;-66
2022/10/26 00:27:59;;;;;;;7.63;3.10;;;15.60;99.90;;;;;;5074338;28;20044;-66
2022/10/26 00:30:26;;;;;;;11.05;3.85;;;15.60;99.90;;;;;;5075093;28;20052;-66
2022/10/26 00:32:53;;;;;;;10.35;3.60;;;15.60;99.90;;;;;;5075335;28;20070;-66
2022/10/26 00:35:19;;;;;;;13.23;3.65;;;15.60;99.90;;;;;;5073574;28;20159;-66
2022/10/26 00:37:55;;;;;;;9.85;2.95;;;15.60;99.90;;;;;;5075190;28;20052;-66
2022/10/26 00:40:26;;;;;;;12.35;2.92;;;15.60;99.90;;;;;;5074075;28;20048;-66
2022/10/26 00:42:52;;;;;;;8.25;3.35;;;15.60;99.90;;;;;;5058228;28;20052;-65
2022/10/26 00:45:27;;;;;;;10.98;4.05;;;15.70;99.90;;;;;;5074693;28;20079;-66
2022/10/26 00:48:09;;;;;;;9.18;3.40;;;15.60;99.90;;;;;;5058526;28;20048;-66
2022/10/26 00:50:38;;;;;;;10.70;3.20;;;15.70;99.90;;;;;;5073183;28;20075;-66
2022/10/26 00:53:05;;;;;;;10.32;3.88;;;15.70;99.90;;;;;;5057167;28;20094;-66
2022/10/26 00:55:34;;;;;;;12.60;3.22;;;15.70;99.90;;;;;;5057403;28;20044;-65
2022/10/26 00:58:01;;;;;;;10.43;3.58;;;15.60;99.90;;;;;;5074512;28;20048;-66
2022/10/26 01:00:28;;;;;;;18.33;3.55;;;15.70;99.90;;;;;;5057330;28;20059;-66
2022/10/26 01:02:56;;;;;;;10.55;3.10;;;15.70;99.90;;;;;;5040066;28;20063;-66
2022/10/26 01:05:23;;;;;;;11.27;3.72;;;15.70;99.90;;;;;;5056384;28;20088;-65
2022/10/26 01:07:49;;;;;;;10.55;2.78;;;15.70;99.90;;;;;;5072957;28;20076;-66
2022/10/26 01:10:17;;;;;;;11.13;3.15;;;15.60;99.90;;;;;;5073061;28;20087;-66
2022/10/26 01:12:44;;;;;;;11.43;4.07;;;15.70;99.90;;;;;;5072610;28;20452;-66
2022/10/26 01:15:11;;;;;;;10.07;3.58;;;15.70;99.90;;;;;;5039895;28;20530;-64
2022/10/26 01:18:03;;;;;;;7.95;3.38;;;15.60;99.90;;;;;;5072050;28;20094;-65
2022/10/26 01:21:08;;;;;;;10.95;3.28;;;15.70;99.90;;;;;;5074551;28;20040;-65
2022/10/26 01:23:50;;;;;;;9.82;2.78;;;15.70;99.90;;;;;;5072959;28;20036;-65
2022/10/26 01:26:42;;;;;;;11.35;3.67;;;15.70;99.90;;;;;;5073609;28;20468;-65
2022/10/26 01:29:31;;;;;;;10.50;3.47;;;15.70;99.90;;;;;;5058852;28;20045;-65
2022/10/26 01:32:09;;;;;;;12.95;3.35;;;15.70;99.90;;;;;;5074316;28;20037;-64
2022/10/26 01:35:02;;;;;;;9.15;2.80;;;15.70;99.90;;;;;;5072746;28;20523;-64
2022/10/26 01:37:29;;;;;;;9.75;4.13;;;15.70;99.90;;;;;;5067529;28;20045;-64
2022/10/26 01:40:05;;;;;;;11.60;3.97;;;15.70;99.90;;;;;;5055629;28;20040;-64
2022/10/26 01:42:32;;;;;;;10.35;2.80;;;15.70;99.90;;;;;;5056349;28;20056;-64
2022/10/26 01:45:01;;;;;;;9.35;3.60;;;15.70;99.90;;;;;;5055514;28;20056;-64
2022/10/26 01:47:29;;;;;;;11.00;3.13;;;15.70;99.90;;;;;;5055946;28;20044;-64
2022/10/26 01:49:56;;;;;;;10.90;2.95;;;15.70;99.90;;;;;;5039060;28;20044;-64
2022/10/26 01:52:23;;;;;;;11.20;2.58;;;15.60;99.90;;;;;;5072240;28;20044;-64
2022/10/26 01:54:50;;;;;;;11.48;2.97;;;15.70;99.90;;;;;;5073424;28;20417;-67
2022/10/26 01:57:19;;;;;;;16.73;2.92;;;15.70;99.90;;;;;;5073036;28;20527;-66
2022/10/26 01:59:53;;;;;;;11.25;3.40;;;15.60;99.90;;;;;;5040027;28;20048;-65
2022/10/26 02:02:52;;;;;;;10.15;2.85;;;15.60;99.90;;;;;;5072098;28;20051;-66
2022/10/26 02:05:36;;;;;;;10.40;3.15;;;15.60;99.90;;;;;;5074033;28;20041;-66
2022/10/26 02:08:27;;;;;;;7.65;3.55;;;15.60;99.90;;;;;;5072736;28;20372;-64
2022/10/26 02:11:20;;;;;;;9.65;3.50;;;15.60;99.90;;;;;;5073005;28;20075;-64
2022/10/26 02:14:00;;;;;;;11.20;3.47;;;15.60;99.90;;;;;;5072147;28;20353;-64
2022/10/26 02:16:47;;;;;;;11.48;3.47;;;15.60;99.90;;;;;;5040667;28;20102;-64
2022/10/26 02:19:37;;;;;;;11.23;3.80;;;15.60;99.90;;;;;;5073797;28;20418;-64
2022/10/26 02:22:17;;;;;;;10.27;3.35;;;15.60;99.90;;;;;;5071907;28;20048;-64
2022/10/26 02:24:44;;;;;;;10.57;3.10;;;15.60;99.90;;;;;;5071562;28;20044;-64
2022/10/26 02:27:40;;;;;;;12.63;4.18;;;15.70;99.90;;;;;;5055271;28;20040;-65
2022/10/26 02:30:07;;;;;;;10.00;3.22;;;15.60;99.90;;;;;;5055748;28;20048;-64
2022/10/26 02:32:34;;;;;;;10.85;3.03;;;15.70;99.90;;;;;;5054994;28;20476;-64
2022/10/26 02:35:01;;;;;;;6.32;2.90;;;15.70;99.90;;;;;;5055289;28;20112;-64
2022/10/26 02:37:28;;;;;;;9.10;3.10;;;15.60;99.90;;;;;;5054764;28;20045;-64
2022/10/26 02:39:55;;;;;;;11.52;2.97;;;15.70;99.90;;;;;;5072884;28;20080;-64
2022/10/26 02:42:22;;;;;;;11.15;3.95;;;15.70;99.90;;;;;;5071744;28;20106;-66
2022/10/26 02:45:01;;;;;;;14.77;3.25;;;15.60;99.90;;;;;;5071360;28;20052;-65
2022/10/26 02:47:28;;;;;;;7.05;3.20;;;15.60;99.90;;;;;;5072262;28;20040;-66
2022/10/26 02:49:55;;;;;;;10.85;3.88;;;15.60;99.90;;;;;;5038651;28;20048;-66
2022/10/26 02:52:39;;;;;;;9.73;3.20;;;15.60;99.90;;;;;;5072505;28;20541;-66
2022/10/26 02:55:27;;;;;;;10.43;2.97;;;15.50;99.90;;;;;;5071805;28;20474;-66
2022/10/26 02:57:57;;;;;;;8.00;2.95;;;15.50;99.90;;;;;;5072091;28;20045;-66
2022/10/26 03:00:23;;;;;;;10.75;3.17;;;15.40;99.90;;;;;;5072196;28;20215;-66
2022/10/26 03:02:52;;;;;;;12.98;3.45;;;15.40;99.90;;;;;;5072740;28;20048;-66
2022/10/26 03:05:21;;;;;;;11.23;3.78;;;15.40;99.90;;;;;;5054872;28;20044;-66
2022/10/26 03:07:48;;;;;;;9.80;2.88;;;15.40;99.90;;;;;;5071880;28;20048;-66
2022/10/26 03:10:15;;;;;;;9.75;2.95;;;15.40;99.90;;;;;;5072677;28;20048;-66
2022/10/26 03:12:42;;;;;;;13.15;4.57;;;15.40;99.90;;;;;;5071919;28;20052;-66
2022/10/26 03:15:09;;;;;;;10.15;3.08;;;15.40;99.90;;;;;;5072627;28;20044;-66
2022/10/26 03:17:36;;;;;;;11.43;3.30;;;15.40;99.90;;;;;;5072308;28;20469;-65
2022/10/26 03:20:03;;;;;;;11.65;3.42;;;15.40;99.90;;;;;;5072083;28;20420;-66
2022/10/26 03:22:30;;;;;;;14.45;3.20;;;15.40;99.90;;;;;;5071090;28;20048;-66
2022/10/26 03:24:57;;;;;;;11.02;3.63;;;15.40;99.90;;;;;;5071398;28;20040;-66
2022/10/26 03:27:25;;;;;;;10.98;4.00;;;15.40;99.90;;;;;;5071098;28;20044;-64
2022/10/26 03:29:53;;;;;;;10.00;3.33;;;15.40;99.90;;;;;;5071086;28;20098;-65
2022/10/26 03:32:19;;;;;;;14.40;4.18;;;15.40;99.90;;;;;;5071483;28;20445;-66
2022/10/26 03:34:46;;;;;;;13.43;4.50;;;15.40;99.90;;;;;;5072208;28;20098;-66
2022/10/26 03:37:13;;;;;;;11.52;3.70;;;15.40;99.90;;;;;;5071709;28;20125;-65
2022/10/26 03:39:40;;;;;;;13.48;4.55;;;15.40;99.90;;;;;;5071266;28;20049;-66
2022/10/26 03:42:07;;;;;;;12.13;4.07;;;15.40;99.90;;;;;;5074915;28;20040;-66
2022/10/26 03:44:34;;;;;;;11.40;3.80;;;15.40;99.90;;;;;;5057972;28;20056;-66
2022/10/26 03:47:00;;;;;;;10.00;3.35;;;15.40;99.90;;;;;;5076556;28;20552;-66
2022/10/26 03:49:27;;;;;;;11.82;3.78;;;15.40;99.90;;;;;;5074636;28;20090;-66
2022/10/26 03:51:54;;;;;;;10.55;3.35;;;15.40;99.90;;;;;;5074590;28;20040;-66
2022/10/26 03:54:21;;;;;;;9.32;3.17;;;15.40;99.90;;;;;;5074839;28;20048;-65
2022/10/26 03:56:48;;;;;;;7.50;2.83;;;15.40;99.90;;;;;;5075526;28;20048;-65
2022/10/26 03:59:20;;;;;;;7.35;3.20;;;15.40;99.90;;;;;;5075858;28;20044;-65
2022/10/26 04:01:47;;;;;;;13.93;3.95;;;15.50;99.90;;;;;;5075467;28;20041;-66
2022/10/26 04:04:19;;;;;;;9.02;2.95;;;15.60;99.90;;;;;;5074976;28;20052;-66
2022/10/26 04:06:46;;;;;;;12.68;3.55;;;15.60;99.90;;;;;;5075770;28;20409;-66
2022/10/26 04:09:13;;;;;;;11.68;3.47;;;15.70;99.90;;;;;;5076415;28;20118;-66
2022/10/26 04:11:40;;;;;;;8.80;3.95;;;15.80;99.90;;;;;;5074681;28;20044;-65
2022/10/26 04:14:07;;;;;;;12.20;3.70;;;15.90;99.90;;;;;;5074754;28;20097;-65
2022/10/26 04:16:34;;;;;;;13.32;4.15;;;15.90;99.90;;;;;;5057623;28;20041;-66
2022/10/26 04:19:01;;;;;;;12.55;3.67;;;15.90;99.90;;;;;;5074108;28;20048;-66
2022/10/26 04:21:27;;;;;;;13.55;4.13;;;16.00;99.90;;;;;;5074116;28;20044;-64
2022/10/26 04:23:54;;;;;;;9.85;3.80;;;16.10;99.90;;;;;;5074538;28;20102;-64
2022/10/26 04:26:21;;;;;;;12.25;3.55;;;16.10;99.90;;;;;;5074867;28;20521;-65
2022/10/26 04:28:48;;;;;;;8.57;3.20;;;16.10;99.90;;;;;;5056985;28;20089;-65
2022/10/26 04:31:15;;;;;;;11.45;4.30;;;16.20;99.90;;;;;;5073402;28;20079;-66
2022/10/26 04:33:42;;;;;;;6.97;3.30;;;16.20;99.90;;;;;;5073717;28;20040;-65
2022/10/26 04:36:09;;;;;;;13.93;4.03;;;16.20;99.90;;;;;;5074609;28;20045;-65
2022/10/26 04:38:36;;;;;;;13.55;3.50;;;16.30;99.90;;;;;;5056859;28;20107;-65
2022/10/26 04:41:03;;;;;;;13.18;3.80;;;16.30;99.90;;;;;;5073538;28;20122;-66
2022/10/26 04:43:30;;;;;;;12.32;3.45;;;16.30;99.90;;;;;;5075425;28;20094;-65
2022/10/26 04:45:57;;;;;;;12.13;3.40;;;16.30;99.90;;;;;;5074986;28;20049;-65
2022/10/26 04:48:24;;;;;;;12.15;3.90;;;16.30;99.90;;;;;;5073022;28;20041;-65
2022/10/26 04:50:59;;;;;;;14.77;3.78;;;16.40;99.90;;;;;;5073079;28;20037;-65
2022/10/26 04:53:26;;;;;;;11.60;3.65;;;16.40;99.90;;;;;;5073688;28;20392;-65
2022/10/26 04:55:57;;;;;;;15.55;3.63;;;16.40;99.90;;;;;;5073196;28;20070;-65
2022/10/26 04:58:24;;;;;;;8.43;3.78;;;16.40;99.90;;;;;;5074409;28;20052;-65
2022/10/26 05:00:51;;;;;;;11.02;4.18;;;16.40;99.90;;;;;;5074037;28;20490;-65
2022/10/26 05:03:18;;;;;;;10.20;3.58;;;16.30;99.90;;;;;;5073532;28;20044;-66
2022/10/26 05:05:46;;;;;;;11.73;4.18;;;16.30;99.90;;;;;;5072974;28;20037;-65
2022/10/26 05:08:14;;;;;;;11.33;3.43;;;16.30;99.90;;;;;;5074168;28;20048;-65
2022/10/26 05:10:41;;;;;;;8.68;2.95;;;16.30;99.90;;;;;;5073842;28;20048;-65
2022/10/26 05:13:08;;;;;;;19.55;4.85;;;16.30;99.90;;;;;;5073609;28;20053;-66
2022/10/26 05:15:35;;;;;;;9.75;3.83;;;16.20;99.90;;;;;;5072871;28;20044;-66
2022/10/26 05:18:04;;;;;;;13.90;3.88;;;16.10;99.90;;;;;;5072419;28;20085;-65
2022/10/26 05:20:32;;;;;;;13.15;3.28;;;16.10;99.90;;;;;;5057205;28;20071;-66
2022/10/26 05:23:00;;;;;;;12.95;4.68;;;16.10;99.90;;;;;;5056707;28;20044;-66
2022/10/26 05:25:28;;;;;;;10.55;3.13;;;16.00;99.90;;;;;;5056088;28;20041;-65
2022/10/26 05:27:59;;;;;;;11.82;3.33;;;15.90;99.90;;;;;;5073049;28;20051;-65
2022/10/26 05:30:26;;;;;;;7.47;2.85;;;15.90;99.90;;;;;;5072973;28;20040;-65
2022/10/26 05:32:54;;;;;;;15.00;4.10;;;15.80;99.90;;;;;;5055803;28;20048;-65
2022/10/26 05:35:21;;;;;;;13.25;3.85;;;15.80;99.90;;;;;;5055799;28;20511;-65
2022/10/26 05:37:48;;;;;;;8.18;2.70;;;15.80;99.90;;;;;;5073762;28;20044;-65
2022/10/26 05:40:16;;;;;;;9.57;3.22;;;15.70;99.90;;;;;;5055694;28;20136;-66
2022/10/26 05:42:43;;;;;;;13.15;4.80;;;15.70;99.90;;;;;;5073267;28;20101;-65
2022/10/26 05:45:11;;;;;;;7.25;2.60;;;15.70;99.90;;;;;;5055855;28;20052;-65
2022/10/26 05:47:38;;;;;;;12.32;3.00;;;15.70;99.90;;;;;;5072975;28;20051;-65
2022/10/26 05:50:06;;;;;;;11.07;3.75;;;15.60;99.90;;;;;;5072199;28;20045;-65
2022/10/26 05:52:43;;;;;;;9.02;2.50;;;15.60;99.90;;;;;;5071785;28;20102;-65
2022/10/26 05:55:12;;;;;;;11.43;3.45;;;15.60;99.90;;;;;;5055437;28;20142;-65
2022/10/26 05:57:39;;;;;;;8.48;3.80;;;15.60;99.90;;;;;;5072143;28;20124;-66
2022/10/26 06:00:14;;;;;;;10.57;3.30;;;15.50;99.90;;;;;;5073948;28;20098;-66
2022/10/26 06:03:02;;;;;;;10.32;3.60;;;15.50;99.90;;;;;;5073042;28;20049;-66
2022/10/26 06:05:31;;;;;;;6.43;3.28;;;15.60;99.90;;;;;;5073673;28;20048;-66
2022/10/26 06:07:58;;;;;;;;;;;15.70;99.90;;;;;;5072351;28;20044;-66
2022/10/26 06:10:26;;;;;;;9.30;2.97;;;15.70;99.90;;;;;;5073667;28;19920;-66
2022/10/26 06:12:53;;;;;;;9.02;2.42;;;15.80;99.90;;;;;;5055109;28;20062;-66
2022/10/26 06:15:20;;;;;;;8.95;2.55;;;15.80;99.90;;;;;;5055425;28;20076;-66
2022/10/26 06:18:23;;;;;;;7.07;2.80;;;15.80;99.90;;;;;;5073569;28;20044;-65
2022/10/26 06:21:13;;;;;;;78.22;66.03;;;15.70;99.90;;;;;;5058501;28;20056;-62
2022/10/26 06:23:43;;;;;;;18.70;13.70;;;15.70;99.90;;;;;;5072019;28;20044;-62
2022/10/26 06:26:45;;;;;;;14.27;6.03;;;15.70;99.90;;;;;;5073136;28;20083;-63
2022/10/26 06:29:40;;;;;;;10.52;3.40;;;15.70;99.90;;;;;;5071727;28;20090;-62
2022/10/26 06:32:08;;;;;;;8.85;2.85;;;15.70;99.90;;;;;;5072382;28;20048;-62
2022/10/26 06:34:35;;;;;;;11.90;4.30;;;15.70;99.90;;;;;;5072738;28;20056;-62
2022/10/26 06:37:02;;;;;;;10.15;2.97;;;15.70;99.90;;;;;;5056015;28;20345;-63
2022/10/26 06:39:30;;;;;;;67.07;47.00;;;15.80;99.90;;;;;;5071897;28;20052;-62
2022/10/26 06:41:57;;;;;;;26.42;21.67;;;15.70;99.90;;;;;;5071382;28;20044;-62
2022/10/26 06:44:24;;;;;;;15.85;6.22;;;15.80;99.90;;;;;;5055600;28;20114;-61
2022/10/26 06:47:09;;;;;;;9.63;4.22;;;15.80;99.90;;;;;;5055005;28;20135;-62
2022/10/26 06:49:40;;;;;;;12.00;3.53;;;15.70;99.90;;;;;;5073495;28;20037;-61
2022/10/26 06:52:40;;;;;;;13.43;3.60;;;15.70;99.90;;;;;;5071314;28;20045;-62
2022/10/26 06:55:13;;;;;;;11.48;3.08;;;15.60;99.90;;;;;;5060409;28;20106;-62
2022/10/26 06:57:40;;;;;;;12.63;2.90;;;15.60;99.90;;;;;;5073097;28;20432;-62
2022/10/26 07:00:18;;;;;;;14.15;3.60;;;15.60;99.90;;;;;;5071417;28;20056;-61
2022/10/26 07:02:46;;;;;;;12.80;3.13;;;15.60;99.90;;;;;;5056707;28;20047;-61
2022/10/26 07:05:14;;;;;;;8.15;3.17;;;15.60;99.90;;;;;;5071939;28;20526;-62
2022/10/26 07:07:45;;;;;;;11.02;3.35;;;15.70;99.90;;;;;;5073685;28;20114;-62
2022/10/26 07:10:13;;;;;;;9.85;3.25;;;15.70;99.90;;;;;;5054899;28;20139;-62
2022/10/26 07:12:40;;;;;;;11.95;3.22;;;15.70;99.90;;;;;;5071235;28;20053;-62
2022/10/26 07:15:07;;;;;;;9.45;2.90;;;15.70;99.90;;;;;;5071682;28;20067;-62
2022/10/26 07:17:43;;;;;;;10.13;2.83;;;15.80;99.90;;;;;;5076479;28;20048;-62
2022/10/26 07:20:10;;;;;;;281.23;206.13;;;15.70;99.90;;;;;;5042456;28;20044;-62
2022/10/26 07:22:37;;;;;;;27.05;18.75;;;15.80;99.90;;;;;;5058633;28;20048;-64
2022/10/26 07:25:06;;;;;;;19.27;7.13;;;15.80;99.90;;;;;;5074981;28;20093;-63
2022/10/26 07:27:33;;;;;;;8.52;3.60;;;15.80;99.90;;;;;;5074800;28;20048;-63
2022/10/26 07:30:01;;;;;;;12.32;3.08;;;15.80;99.90;;;;;;5074963;28;20054;-63
2022/10/26 07:32:29;;;;;;;13.75;3.40;;;15.80;99.90;;;;;;5076129;28;20056;-63
2022/10/26 07:34:56;;;;;;;11.77;2.90;;;15.80;99.90;;;;;;5076258;28;20075;-63
2022/10/26 07:37:23;;;;;;;9.00;3.08;;;15.80;99.90;;;;;;5074708;28;20434;-62
2022/10/26 07:39:50;;;;;;;12.20;3.58;;;15.80;99.90;;;;;;5074725;28;20079;-63
2022/10/26 07:42:17;;;;;;;12.02;4.18;;;15.80;99.90;;;;;;5076050;28;20049;-61
2022/10/26 07:44:44;;;;;;;11.35;2.97;;;15.80;99.90;;;;;;5075883;28;20044;-62
2022/10/26 07:47:11;;;;;;;10.60;3.10;;;15.80;99.90;;;;;;5076322;28;20045;-61
2022/10/26 07:49:37;;;;;;;15.05;4.15;;;15.80;99.90;;;;;;5075353;28;20047;-61
2022/10/26 07:52:04;;;;;;;9.15;2.72;;;15.80;99.90;;;;;;5075467;28;20479;-61
2022/10/26 07:54:31;;;;;;;8.18;2.83;;;15.90;99.90;;;;;;5075428;28;20444;-61
2022/10/26 07:56:58;;;;;;;9.27;2.72;;;16.00;99.90;;;;;;5075323;28;20545;-62
2022/10/26 07:59:25;;;;;;;8.50;2.45;;;16.10;99.90;;;;;;5057566;28;20438;-61
2022/10/26 08:01:52;;;;;;;8.65;2.80;;;16.20;99.90;;;;;;5058210;28;20040;-61
2022/10/26 08:04:19;;;;;;;15.68;3.00;;;16.20;99.90;;;;;;5073848;28;20429;-61
2022/10/26 08:06:47;;;;;;;10.90;2.70;;;16.30;99.90;;;;;;5073680;28;20074;-61
2022/10/26 08:09:14;;;;;;;14.07;2.70;;;16.30;99.90;;;;;;5075081;28;20049;-61
2022/10/26 08:11:41;;;;;;;13.50;3.20;;;16.40;99.90;;;;;;5074853;28;20041;-61
2022/10/26 08:14:09;;;;;;;13.65;3.33;;;16.50;99.90;;;;;;5075633;28;20052;-62
2022/10/26 08:16:38;;;;;;;12.02;3.13;;;16.50;99.90;;;;;;5075221;28;20048;-62
2022/10/26 08:19:06;;;;;;;11.27;3.65;;;16.60;99.90;;;;;;5057183;28;20037;-62
2022/10/26 08:21:33;;;;;;;13.23;3.53;;;16.70;99.90;;;;;;5074339;28;20368;-61
2022/10/26 08:24:06;;;;;;;11.55;3.45;;;16.70;99.90;;;;;;5074523;28;20036;-62
2022/10/26 08:26:33;;;;;;;10.93;3.33;;;16.70;99.90;;;;;;5073417;28;20056;-62
2022/10/26 08:29:00;;;;;;;14.40;3.72;;;16.80;99.90;;;;;;5074699;28;20041;-61
2022/10/26 08:31:27;;;;;;;18.38;3.92;;;16.80;99.90;;;;;;5074475;28;20545;-62
2022/10/26 08:33:53;;;;;;;10.80;3.13;;;16.80;99.90;;;;;;5074928;28;20052;-61
2022/10/26 08:36:24;;;;;;;13.07;4.28;;;16.90;99.90;;;;;;5075222;28;20048;-62
2022/10/26 08:38:51;;;;;;;13.45;4.07;;;16.90;99.90;;;;;;5073255;28;20048;-61
2022/10/26 08:41:23;;;;;;;14.30;4.35;;;17.00;99.90;;;;;;5057144;28;20045;-61
2022/10/26 08:43:55;;;;;;;12.23;3.83;;;17.00;99.90;;;;;;5057204;28;20067;-61
2022/10/26 08:46:28;;;;;;;19.60;3.70;;;17.00;99.90;;;;;;5040385;28;20041;-62
2022/10/26 08:48:59;;;;;;;17.27;4.18;;;17.10;99.90;;;;;;5057668;28;20047;-62
2022/10/26 08:51:36;;;;;;;15.35;3.95;;;17.10;99.90;;;;;;5073742;28;20063;-62
2022/10/26 08:54:07;;;;;;;14.90;3.63;;;17.10;99.90;;;;;;5057121;28;20146;-62
2022/10/26 08:56:39;;;;;;;12.30;4.28;;;17.20;99.90;;;;;;5075255;28;20044;-62
2022/10/26 08:59:44;;;;;;;14.00;3.80;;;17.30;99.90;;;;;;5056273;28;20052;-62
2022/10/26 09:02:15;;;;;;;14.40;3.38;;;17.50;99.90;;;;;;5072957;28;20049;-61
2022/10/26 09:04:42;;;;;;;15.43;3.67;;;17.60;99.90;;;;;;5057365;28;20102;-62
2022/10/26 09:07:30;;;;;;;86.95;70.00;;;17.70;99.90;;;;;;5072544;28;20050;-61
2022/10/26 09:10:26;;;;;;;37.13;29.13;;;17.80;99.90;;;;;;5072771;28;20429;-61
2022/10/26 09:13:02;;;;;;;17.00;8.70;;;17.80;99.90;;;;;;5074052;28;20438;-63
2022/10/26 09:15:59;;;;;;;22.75;6.05;;;17.80;99.90;;;;;;5056249;28;20314;-62
2022/10/26 09:18:46;;;;;;;13.88;4.70;;;17.80;99.90;;;;;;5073258;28;20044;-62
2022/10/26 09:21:23;;;;;;;10.55;3.60;;;17.80;99.90;;;;;;5074243;28;20190;-62
2022/10/26 09:23:52;;;;;;;13.00;3.28;;;17.80;99.90;;;;;;5073754;28;20044;-62
2022/10/26 09:26:32;;;;;;;14.32;4.72;;;17.80;99.90;;;;;;5055964;28;20392;-62
2022/10/26 09:29:04;;;;;;;10.40;3.15;;;17.90;99.90;;;;;;5073244;28;20070;-62
2022/10/26 09:31:34;;;;;;;13.80;3.40;;;18.00;99.90;;;;;;5072663;28;20041;-62
2022/10/26 09:34:15;;;;;;;11.25;3.47;;;18.10;99.90;;;;;;5072315;28;20051;-62
2022/10/26 09:36:42;;;;;;;9.77;3.60;;;18.10;99.90;;;;;;5057161;28;20041;-62
2022/10/26 09:39:22;;;;;;;11.30;2.95;;;18.10;99.90;;;;;;5055141;28;20049;-62
2022/10/26 09:41:54;;;;;;;11.05;3.13;;;18.00;99.90;;;;;;5073370;28;20052;-62
2022/10/26 09:44:25;;;;;;;12.50;3.13;;;18.00;99.90;;;;;;5056507;28;20434;-62
2022/10/26 09:47:26;;;;;;;14.25;4.22;;;17.90;99.90;;;;;;5073296;28;20048;-62
2022/10/26 09:49:55;;;;;;;18.10;3.15;;;17.90;99.90;;;;;;5073389;28;20090;-62
2022/10/26 09:52:22;;;;;;;10.20;3.50;;;17.80;99.90;;;;;;5055954;28;20040;-62
2022/10/26 09:54:49;;;;;;;13.52;4.20;;;17.80;99.90;;;;;;5072075;28;20048;-62
2022/10/26 09:57:17;;;;;;;13.27;4.03;;;17.80;99.90;;;;;;5073084;28;20041;-62
2022/10/26 09:59:46;;;;;;;10.90;3.97;;;17.90;99.90;;;;;;5055712;28;20117;-62
2022/10/26 10:02:32;;;;;;;11.88;3.15;;;17.90;99.90;;;;;;5072161;28;20159;-62
2022/10/26 10:04:59;;;;;;;11.25;2.63;;;17.80;99.90;;;;;;5072970;28;20458;-62
2022/10/26 10:07:26;;;;;;;13.55;3.70;;;17.80;99.90;;;;;;5072071;28;20056;-62
2022/10/26 10:10:19;;;;;;;10.60;2.97;;;17.80;99.90;;;;;;5073192;28;20047;-62
2022/10/26 10:12:49;;;;;;;13.32;3.45;;;17.80;99.90;;;;;;5070912;28;20044;-62
2022/10/26 10:15:25;;;;;;;13.70;3.40;;;17.80;99.90;;;;;;5072755;28;20044;-62
2022/10/26 10:17:54;;;;;;;13.27;3.65;;;17.80;99.90;;;;;;5073961;28;20045;-62
2022/10/26 10:20:25;;;;;;;14.32;3.80;;;17.80;99.90;;;;;;5072857;28;20080;-62
2022/10/26 10:22:57;;;;;;;14.00;3.67;;;17.80;99.90;;;;;;5071643;28;20127;-62
2022/10/26 10:25:44;;;;;;;17.55;4.25;;;17.80;99.90;;;;;;5072640;28;20052;-62
2022/10/26 10:28:29;;;;;;;9.77;3.30;;;17.90;99.90;;;;;;5073117;28;20094;-62
2022/10/26 10:31:04;;;;;;;10.93;3.28;;;18.00;99.90;;;;;;5073210;28;20040;-62
2022/10/26 10:33:40;;;;;;;11.68;3.88;;;18.00;99.90;;;;;;5072455;28;20044;-62
2022/10/26 10:36:14;;;;;;;12.70;3.83;;;18.10;99.90;;;;;;5057370;28;20040;-62
2022/10/26 10:38:42;;;;;;;14.98;3.60;;;18.10;99.90;;;;;;5056065;28;20041;-62
2022/10/26 10:41:27;;;;;;;11.93;3.25;;;18.20;99.90;;;;;;5071930;28;20048;-62
2022/10/26 10:44:04;;;;;;;11.70;3.53;;;18.20;99.90;;;;;;5072732;28;20048;-62
2022/10/26 10:46:31;;;;;;;13.13;3.50;;;18.30;99.90;;;;;;5057186;28;20114;-62
2022/10/26 10:49:05;;;;;;;9.52;2.80;;;18.40;99.90;;;;;;5071626;28;20480;-62
2022/10/26 10:51:37;;;;;;;13.13;2.92;;;18.50;99.90;;;;;;5075101;28;20036;-62
2022/10/26 10:54:04;;;;;;;11.20;3.10;;;18.60;99.90;;;;;;5059428;28;20049;-62
2022/10/26 10:56:37;;;;;;;10.63;2.88;;;18.50;99.90;;;;;;5058551;28;20070;-62
2022/10/26 10:59:34;;;;;;;13.02;3.22;;;18.60;99.90;;;;;;5058877;28;20094;-62
2022/10/26 11:02:29;;;;;;;14.55;3.53;;;18.60;99.90;;;;;;5076360;28;20094;-62
2022/10/26 11:04:56;;;;;;;15.18;4.05;;;18.60;99.90;;;;;;5077695;28;20356;-62
2022/10/26 11:07:23;;;;;;;11.18;3.40;;;18.60;99.90;;;;;;5077116;28;20106;-63
2022/10/26 11:09:50;;;;;;;10.30;3.22;;;18.70;99.90;;;;;;5076727;28;20047;-62
2022/10/26 11:12:30;;;;;;;13.50;4.22;;;18.60;99.90;;;;;;5058544;28;20044;-63
2022/10/26 11:15:05;;;;;;;12.43;4.00;;;18.60;99.90;;;;;;5074719;28;20465;-63
2022/10/26 11:17:55;;;;;;;10.93;3.50;;;18.60;99.90;;;;;;5076084;28;20044;-63
2022/10/26 11:20:22;;;;;;;19.25;11.27;;;18.70;99.90;;;;;;5074938;28;20044;-62
2022/10/26 11:22:55;;;;;;;12.13;4.47;;;18.70;99.90;;;;;;5058076;28;20096;-63
2022/10/26 11:25:27;;;;;;;12.48;3.85;;;18.70;99.90;;;;;;5075810;28;20047;-62
2022/10/26 11:27:56;;;;;;;9.70;3.92;;;18.60;99.90;;;;;;5058341;28;20550;-63
2022/10/26 11:30:26;;;;;;;11.50;2.80;;;18.60;99.90;;;;;;5074560;28;20044;-63
2022/10/26 11:33:00;;;;;;;12.93;3.97;;;18.60;99.90;;;;;;5075194;28;20040;-62
2022/10/26 11:35:57;;;;;;;11.43;3.65;;;18.60;99.90;;;;;;5074721;28;20040;-63
2022/10/26 11:38:44;;;;;;;10.80;4.25;;;18.60;99.90;;;;;;5049316;28;20102;-62
2022/10/26 11:41:39;;;;;;;12.55;3.97;;;18.60;99.90;;;;;;5060417;28;20431;-62
2022/10/26 11:44:16;;;;;;;10.02;3.20;;;18.60;99.90;;;;;;5074176;28;20480;-62
2022/10/26 11:46:55;;;;;;;8.65;2.92;;;18.60;99.90;;;;;;5059479;28;20049;-62
2022/10/26 11:49:23;;;;;;;;;;;18.60;99.90;;;;;;5059282;28;20040;-62
2022/10/26 11:52:49;;;;;;;13.98;2.88;;;18.60;99.90;;;;;;5074376;28;19962;-62
2022/10/26 11:55:19;;;;;;;9.13;3.05;;;18.60;99.90;;;;;;5070390;28;20085;-62
2022/10/26 11:57:46;;;;;;;12.13;3.92;;;18.60;99.90;;;;;;5075744;28;20048;-62
2022/10/26 12:00:17;;;;;;;11.73;4.07;;;18.60;99.90;;;;;;5073954;28;20044;-62
2022/10/26 12:03:07;;;;;;;12.55;4.00;;;18.60;99.90;;;;;;5074270;28;20138;-62
2022/10/26 12:05:41;;;;;;;12.65;3.40;;;18.70;99.90;;;;;;5057745;28;20047;-62
2022/10/26 12:08:32;;;;;;;17.55;10.35;;;18.70;99.90;;;;;;5074418;28;20044;-62
2022/10/26 12:11:20;;;;;;;16.23;6.20;;;18.80;99.90;;;;;;5058822;28;20518;-62
2022/10/26 12:14:18;;;;;;;12.10;3.80;;;18.80;99.90;;;;;;5075172;28;20114;-61
2022/10/26 12:16:45;;;;;;;12.30;4.07;;;18.90;99.90;;;;;;5073694;28;20110;-61
2022/10/26 12:19:17;;;;;;;12.90;3.83;;;18.90;99.90;;;;;;5074932;28;20045;-64
2022/10/26 12:21:44;;;;;;;13.23;4.00;;;18.90;99.90;;;;;;5057728;28;20088;-64
2022/10/26 12:24:28;;;;;;;9.98;4.38;;;18.90;99.90;;;;;;5073523;28;20037;-63
2022/10/26 12:27:00;;;;;;;10.27;3.28;;;18.90;99.90;;;;;;5073645;28;20048;-61
2022/10/26 12:29:59;;;;;;;9.60;3.10;;;18.80;99.90;;;;;;5073720;28;20051;-62
2022/10/26 12:32:32;;;;;;;8.60;2.75;;;18.80;99.90;;;;;;5062502;28;20044;-61
2022/10/26 12:35:00;;;;;;;14.68;4.30;;;18.80;99.90;;;;;;5073165;28;20094;-61
2022/10/26 12:37:35;;;;;;;14.93;4.07;;;18.80;99.90;;;;;;5057096;28;20045;-62
2022/10/26 12:40:29;;;;;;;14.27;3.50;;;18.80;99.90;;;;;;5073535;28;20127;-62
2022/10/26 12:42:57;;;;;;;12.95;3.80;;;18.70;99.90;;;;;;5073597;28;20189;-62
2022/10/26 12:45:24;;;;;;;20.27;4.00;;;18.60;99.90;;;;;;5072911;28;20052;-61
2022/10/26 12:47:51;;;;;;;14.68;3.88;;;18.60;99.90;;;;;;5073732;28;20048;-62
2022/10/26 12:50:23;;;;;;;18.95;3.33;;;18.60;99.90;;;;;;5074172;28;20044;-63
2022/10/26 12:52:56;;;;;;;13.10;3.58;;;18.60;99.90;;;;;;5073035;28;20037;-62
2022/10/26 12:55:26;;;;;;;12.88;3.72;;;18.50;99.90;;;;;;5074244;28;20545;-62
2022/10/26 12:57:59;;;;;;;16.45;4.18;;;18.50;99.90;;;;;;5073103;28;20041;-62
2022/10/26 13:00:26;;;;;;;15.55;3.42;;;18.60;99.90;;;;;;5074078;28;20054;-62
2022/10/26 13:03:15;;;;;;;10.25;2.80;;;18.60;99.90;;;;;;5073356;28;20467;-61
2022/10/26 13:06:10;;;;;;;18.20;4.35;;;18.60;99.90;;;;;;5073931;28;20146;-62